Terminal Aerodrome Forecast
Issued by NWS

Home | Current Version | Previous Version | Text Only | Print | Product List | Glossary On
Versions: 1 2 3 4 5 6 7 8 9 10 11 12 13 14
000
FTUS45 KTFX 192300
TAFHVR
TAF
KHVR 192337Z 2000/2024 30008KT P6SM BKN100
     FM200300 26008KT P6SM SCT120
     FM202000 31008KT P6SM SKC=

USA.gov is the U.S. government's official web portal to all federal, state and local government web resources and services.